createdAt,value
2023-03-28T00:00:34.046Z,98138.52
2023-03-28T00:01:59.134Z,98141.59
2023-03-28T00:03:43.840Z,98140.67
2023-03-28T00:05:05.606Z,98137.62
2023-03-28T00:06:37.413Z,98136.23
2023-03-28T00:08:18.529Z,98134.86
2023-03-28T00:09:40.450Z,98138.55
2023-03-28T00:11:02.944Z,98131.17
2023-03-28T00:12:32.985Z,98140.26
2023-03-28T00:14:03.727Z,98138.77
2023-03-28T00:15:37.738Z,98133.38
2023-03-28T00:17:11.167Z,98131.19
2023-03-28T00:18:32.778Z,98129.42
2023-03-28T00:20:09.527Z,98125.41
2023-03-28T00:21:35.509Z,98121.38
2023-03-28T00:23:11.964Z,98123.27
2023-03-28T00:24:52.577Z,98124.25
2023-03-28T00:26:38.610Z,98122.95
2023-03-28T00:28:12.361Z,98126.44
2023-03-28T00:30:00.832Z,98126.17
2023-03-28T00:31:42.112Z,98117.40
2023-03-28T00:33:11.568Z,98116.31
2023-03-28T00:34:33.391Z,98114.68
2023-03-28T00:36:11.547Z,98117.19
2023-03-28T00:37:34.393Z,98114.57
2023-03-28T00:39:21.922Z,98117.89
2023-03-28T00:41:02.337Z,98119.05
2023-03-28T00:42:37.866Z,98115.69
2023-03-28T00:44:14.391Z,98111.13
2023-03-28T00:45:59.016Z,98095.46
2023-03-28T00:47:42.695Z,98107.09
2023-03-28T00:49:28.712Z,98103.46
2023-03-28T00:51:11.118Z,98109.79
2023-03-28T00:52:54.123Z,98116.83
2023-03-28T00:54:49.599Z,98120.50
2023-03-28T00:56:34.240Z,98115.55
2023-03-28T00:58:16.123Z,98117.63
2023-03-28T01:00:04.819Z,98117.38
2023-03-28T01:01:49.783Z,98122.48
2023-03-28T01:03:44.744Z,98114.48
2023-03-28T01:05:21.852Z,98115.82
2023-03-28T01:07:07.308Z,98113.98
2023-03-28T01:08:55.267Z,98114.52
2023-03-28T01:10:26.485Z,98111.88
2023-03-28T01:12:00.437Z,98108.80
2023-03-28T01:13:34.756Z,98107.59
2023-03-28T01:15:04.406Z,98105.16
2023-03-28T01:17:04.526Z,98111.58
2023-03-28T01:18:53.998Z,98106.69
2023-03-28T01:20:45.700Z,98104.93
2023-03-28T01:22:40.620Z,98105.52
2023-03-28T01:24:30.240Z,98104.76
2023-03-28T01:26:06.656Z,98111.25
2023-03-28T01:28:00.577Z,98108.47
2023-03-28T01:29:59.963Z,98104.66
2023-03-28T01:31:45.444Z,98101.33
2023-03-28T01:33:58.061Z,98095.61
2023-03-28T01:35:52.504Z,98096.52
2023-03-28T01:37:37.756Z,98095.05
2023-03-28T01:39:29.707Z,98093.26
2023-03-28T01:41:14.885Z,98089.73
2023-03-28T01:43:03.407Z,98084.04
2023-03-28T01:44:49.698Z,98066.84
2023-03-28T01:46:34.633Z,98076.35
2023-03-28T01:48:28.293Z,98074.44
2023-03-28T01:50:13.879Z,98072.09
2023-03-28T01:52:07.073Z,98068.73
2023-03-28T01:54:00.563Z,98068.32
2023-03-28T01:55:30.863Z,98069.66
2023-03-28T01:57:04.391Z,98065.22
2023-03-28T01:58:52.305Z,98067.84
2023-03-28T02:00:42.756Z,98070.27
2023-03-28T02:02:16.318Z,98070.41
2023-03-28T02:04:20.790Z,98065.95
2023-03-28T02:05:56.079Z,98069.70
2023-03-28T02:07:40.428Z,98065.27
2023-03-28T02:09:25.018Z,98062.27
2023-03-28T02:11:00.105Z,98061.02
2023-03-28T02:12:48.301Z,98058.95
2023-03-28T02:15:07.043Z,98061.53
2023-03-28T02:17:04.942Z,98060.11
2023-03-28T02:18:56.089Z,98062.61
2023-03-28T02:21:07.072Z,98055.73
2023-03-28T02:23:03.482Z,98057.63
2023-03-28T02:25:03.771Z,98055.53
2023-03-28T02:26:53.791Z,98055.50
2023-03-28T02:29:32.751Z,98055.75
2023-03-28T02:31:26.876Z,98054.43
2023-03-28T02:33:02.390Z,98054.48
2023-03-28T02:34:51.643Z,98056.30
2023-03-28T02:36:13.635Z,98051.15
2023-03-28T02:37:58.730Z,98050.48
2023-03-28T02:39:49.507Z,98051.23
2023-03-28T02:41:31.009Z,98047.69
2023-03-28T02:43:02.559Z,98044.94
2023-03-28T02:44:53.092Z,98049.83
2023-03-28T02:46:46.398Z,98042.20
2023-03-28T02:48:27.695Z,98042.79
2023-03-28T02:50:00.931Z,98043.38
2023-03-28T02:51:50.517Z,98043.16
2023-03-28T02:53:38.794Z,98037.11
2023-03-28T02:55:14.927Z,98035.65
2023-03-28T02:57:02.812Z,98035.23
2023-03-28T02:59:04.577Z,98033.73
2023-03-28T03:00:57.174Z,98034.91
2023-03-28T03:02:32.132Z,98031.04
2023-03-28T03:04:17.387Z,98030.17
2023-03-28T03:06:03.288Z,98033.73
2023-03-28T03:07:56.662Z,98029.44
2023-03-28T03:09:41.635Z,98028.94
2023-03-28T03:11:17.819Z,98024.77
2023-03-28T03:12:58.498Z,98027.33
2023-03-28T03:14:43.847Z,98024.82
2023-03-28T03:16:54.846Z,98023.83
2023-03-28T03:18:49.578Z,98026.63
2023-03-28T03:20:42.547Z,98022.79
2023-03-28T03:22:28.206Z,98018.02
2023-03-28T03:24:04.220Z,98026.34
2023-03-28T03:25:37.508Z,98024.64
2023-03-28T03:27:24.979Z,98023.33
2023-03-28T03:29:12.149Z,98018.67
2023-03-28T03:30:57.607Z,98024.21
2023-03-28T03:32:44.755Z,98022.77
2023-03-28T03:34:34.325Z,98019.23
2023-03-28T03:36:08.093Z,98022.83
2023-03-28T03:37:41.554Z,98017.63
2023-03-28T03:39:15.088Z,98018.73
2023-03-28T03:41:00.101Z,98015.98
2023-03-28T03:42:54.596Z,98019.67
2023-03-28T03:44:39.830Z,98015.26
2023-03-28T03:46:25.560Z,98009.66
2023-03-28T03:48:10.696Z,98010.71
2023-03-28T03:49:58.864Z,98016.17
2023-03-28T03:51:43.023Z,98014.03
2023-03-28T03:53:18.381Z,98009.27
2023-03-28T03:54:56.354Z,98007.88
2023-03-28T03:56:30.376Z,98009.02
2023-03-28T03:58:12.628Z,98009.05
2023-03-28T03:59:58.182Z,98007.56
2023-03-28T04:01:33.951Z,98012.73
2023-03-28T04:03:24.255Z,98015.02
2023-03-28T04:05:19.499Z,98012.71
2023-03-28T04:07:05.295Z,98015.34
2023-03-28T04:08:41.692Z,98019.01
2023-03-28T04:10:18.133Z,98017.29
2023-03-28T04:11:51.612Z,98014.61
2023-03-28T04:13:43.284Z,98013.45
2023-03-28T04:15:28.809Z,98004.38
2023-03-28T04:17:25.397Z,98008.83
2023-03-28T04:19:05.042Z,98008.11
2023-03-28T04:20:41.364Z,98009.73
2023-03-28T04:22:31.641Z,98009.75
2023-03-28T04:24:07.799Z,98011.43
2023-03-28T04:25:52.430Z,98006.94
2023-03-28T04:27:35.410Z,98009.75
2023-03-28T04:29:21.618Z,98018.48
2023-03-28T04:31:05.984Z,98014.31
2023-03-28T04:33:05.987Z,98024.30
2023-03-28T04:34:45.878Z,98020.29
2023-03-28T04:36:23.344Z,98019.02
2023-03-28T04:38:05.539Z,98021.67
2023-03-28T04:39:36.876Z,98017.62
2023-03-28T04:41:24.155Z,98020.17
2023-03-28T04:43:27.154Z,98022.05
2023-03-28T04:44:56.298Z,98026.48
2023-03-28T04:46:37.599Z,98029.01
2023-03-28T04:48:06.900Z,98030.09
2023-03-28T04:50:01.749Z,98016.05
2023-03-28T04:51:58.982Z,98031.14
2023-03-28T04:53:32.778Z,98034.01
2023-03-28T04:55:31.548Z,98034.52
2023-03-28T04:57:17.217Z,98033.98
2023-03-28T04:59:06.682Z,98033.51
2023-03-28T05:00:38.187Z,98033.48
2023-03-28T05:02:00.418Z,98029.83
2023-03-28T05:03:49.232Z,98032.14
2023-03-28T05:05:13.942Z,98033.42
2023-03-28T05:06:39.772Z,98034.92
2023-03-28T05:08:25.397Z,98030.30
2023-03-28T05:10:12.183Z,98033.31
2023-03-28T05:11:56.625Z,98036.52
2023-03-28T05:13:41.916Z,98032.35
2023-03-28T05:15:45.583Z,98030.77
2023-03-28T05:17:51.778Z,98030.70
2023-03-28T05:19:39.132Z,98031.66
2023-03-28T05:21:40.948Z,98035.86
2023-03-28T05:23:10.096Z,98034.94
2023-03-28T05:25:05.150Z,98039.42
2023-03-28T05:26:50.008Z,98040.33
2023-03-28T05:28:19.222Z,98036.50
2023-03-28T05:29:51.409Z,98041.98
2023-03-28T05:31:32.348Z,98042.29
2023-03-28T05:33:35.490Z,98040.33
2023-03-28T05:35:23.725Z,98038.66
2023-03-28T05:36:58.309Z,98037.20
2023-03-28T05:38:40.901Z,98042.36
2023-03-28T05:40:29.695Z,98036.64
2023-03-28T05:42:03.196Z,98036.60
2023-03-28T05:43:36.884Z,98039.79
2023-03-28T05:45:24.133Z,98044.21
2023-03-28T05:47:20.247Z,98042.20
2023-03-28T05:48:53.514Z,98044.73
2023-03-28T05:50:44.216Z,98036.00
2023-03-28T05:52:29.705Z,98042.30
2023-03-28T05:54:14.879Z,98032.02
2023-03-28T05:55:59.547Z,98039.15
2023-03-28T05:57:53.449Z,98040.62
2023-03-28T05:59:29.189Z,98043.86
2023-03-28T06:01:14.537Z,98042.63
2023-03-28T06:03:02.150Z,98048.61
2023-03-28T06:04:52.272Z,98043.84
2023-03-28T06:06:37.773Z,98047.52
2023-03-28T06:08:13.548Z,98048.45
2023-03-28T06:09:49.138Z,98051.09
2023-03-28T06:11:43.594Z,98046.55
2023-03-28T06:13:17.256Z,98051.90
2023-03-28T06:14:59.395Z,98050.09
2023-03-28T06:16:30.375Z,98057.16
2023-03-28T06:18:04.755Z,98056.69
2023-03-28T06:19:45.328Z,98056.11
2023-03-28T06:21:19.876Z,98060.84
2023-03-28T06:23:05.269Z,98062.23
2023-03-28T06:24:40.675Z,98063.14
2023-03-28T06:26:26.318Z,98061.84
2023-03-28T06:28:11.325Z,98070.51
2023-03-28T06:30:04.972Z,98066.94
2023-03-28T06:32:02.564Z,98066.97
2023-03-28T06:33:49.651Z,98065.60
2023-03-28T06:35:24.951Z,98073.91
2023-03-28T06:37:09.480Z,98076.41
2023-03-28T06:39:09.955Z,98075.95
2023-03-28T06:40:55.477Z,98073.92
2023-03-28T06:42:31.720Z,98078.73
2023-03-28T06:44:18.570Z,98078.02
2023-03-28T06:46:50.693Z,98081.80
2023-03-28T06:48:36.447Z,98083.92
2023-03-28T06:50:56.567Z,98090.48
2023-03-28T06:52:22.547Z,98092.61
2023-03-28T06:54:16.555Z,98091.73
2023-03-28T06:55:58.842Z,98092.45
2023-03-28T06:57:44.021Z,98097.46
2023-03-28T06:59:37.133Z,98101.73
2023-03-28T07:01:09.059Z,98098.82
2023-03-28T07:03:06.174Z,98106.23
2023-03-28T07:04:50.917Z,98103.14
2023-03-28T07:06:36.539Z,98105.23
2023-03-28T07:08:11.850Z,98110.41
2023-03-28T07:10:06.648Z,98110.48
2023-03-28T07:11:47.025Z,98113.73
2023-03-28T07:13:32.705Z,98118.74
2023-03-28T07:15:13.905Z,98122.13
2023-03-28T07:16:55.459Z,98124.98
2023-03-28T07:18:31.589Z,98129.03
2023-03-28T07:20:16.373Z,98128.30
2023-03-28T07:22:02.409Z,98128.44
2023-03-28T07:23:56.116Z,98132.13
2023-03-28T07:25:34.193Z,98130.81
2023-03-28T07:27:15.504Z,98137.16
2023-03-28T07:29:10.774Z,98134.77
2023-03-28T07:30:44.405Z,98133.00
2023-03-28T07:32:35.859Z,98134.14
2023-03-28T07:34:28.251Z,98133.52
2023-03-28T07:36:04.202Z,98142.20
2023-03-28T07:37:50.554Z,98142.36
2023-03-28T07:39:53.061Z,98146.85
2023-03-28T07:41:29.259Z,98148.27
2023-03-28T07:42:50.636Z,98149.09
2023-03-28T07:44:15.844Z,98151.21
2023-03-28T07:46:02.834Z,98155.48
2023-03-28T07:47:56.509Z,98158.86
2023-03-28T07:49:37.650Z,98166.14
2023-03-28T07:51:22.911Z,98168.17
2023-03-28T07:52:57.884Z,98175.00
2023-03-28T07:54:34.565Z,98174.98
2023-03-28T07:56:00.716Z,98179.02
2023-03-28T07:57:57.045Z,98198.33
2023-03-28T07:59:40.818Z,98210.73
2023-03-28T08:01:26.214Z,98209.23
2023-03-28T08:02:55.612Z,98216.14
2023-03-28T08:04:49.582Z,98226.14
2023-03-28T08:06:32.513Z,98235.45
2023-03-28T08:08:17.557Z,98236.38
2023-03-28T08:09:51.037Z,98244.24
2023-03-28T08:11:30.168Z,98243.95
2023-03-28T08:13:05.919Z,98248.88
2023-03-28T08:14:46.565Z,98249.92
2023-03-28T08:16:31.910Z,98254.27
2023-03-28T08:18:05.890Z,98260.33
2023-03-28T08:19:58.951Z,98264.58
2023-03-28T08:21:35.215Z,98274.08
2023-03-28T08:23:16.849Z,98265.05
2023-03-28T08:24:45.876Z,98275.20
2023-03-28T08:26:37.590Z,98274.59
2023-03-28T08:28:23.037Z,98280.86
2023-03-28T08:30:12.388Z,98281.18
2023-03-28T08:32:14.469Z,98286.86
2023-03-28T08:34:01.268Z,98292.89
2023-03-28T08:35:28.681Z,98296.04
2023-03-28T08:37:06.628Z,98299.11
2023-03-28T08:38:48.916Z,98303.09
2023-03-28T08:40:25.536Z,98310.80
2023-03-28T08:42:09.922Z,98306.73
2023-03-28T08:43:50.656Z,98320.56
2023-03-28T08:45:31.968Z,98319.95
2023-03-28T08:47:05.671Z,98321.83
2023-03-28T08:48:39.310Z,98321.11
2023-03-28T08:50:24.238Z,98326.54
2023-03-28T08:52:17.707Z,98335.24
2023-03-28T08:54:03.508Z,98341.80
2023-03-28T08:55:27.786Z,98342.56
2023-03-28T08:56:57.206Z,98354.32
2023-03-28T08:58:32.892Z,98355.32
2023-03-28T09:00:22.242Z,98361.45
2023-03-28T09:02:15.740Z,98360.20
2023-03-28T09:03:37.685Z,98361.02
2023-03-28T09:05:23.265Z,98355.66
2023-03-28T09:07:03.127Z,98371.64
2023-03-28T09:08:48.194Z,98369.52
2023-03-28T09:10:21.988Z,98377.15
2023-03-28T09:12:05.944Z,98378.61
2023-03-28T09:13:55.686Z,98382.63
2023-03-28T09:15:41.958Z,98384.03
2023-03-28T09:17:15.704Z,98382.20
2023-03-28T09:19:07.545Z,98384.19
2023-03-28T09:20:52.927Z,98390.41
2023-03-28T09:22:54.621Z,98394.45
2023-03-28T09:24:49.586Z,98403.16
2023-03-28T09:26:19.593Z,98394.26
2023-03-28T09:28:14.933Z,98403.92
2023-03-28T09:30:02.985Z,98404.84
2023-03-28T09:31:57.582Z,98405.98
2023-03-28T09:33:42.926Z,98409.90
2023-03-28T09:35:07.950Z,98412.99
2023-03-28T09:37:01.483Z,98409.52
2023-03-28T09:38:56.584Z,98409.90
2023-03-28T09:40:30.394Z,98411.12
2023-03-28T09:42:22.632Z,98412.99
2023-03-28T09:43:47.057Z,98417.10
2023-03-28T09:45:47.381Z,98416.95
2023-03-28T09:47:28.181Z,98421.38
2023-03-28T09:49:08.209Z,98426.35
2023-03-28T09:51:02.372Z,98426.61
2023-03-28T09:52:56.412Z,98425.55
2023-03-28T09:54:18.573Z,98429.56
2023-03-28T09:56:08.200Z,98433.15
2023-03-28T09:57:40.235Z,98434.58
2023-03-28T09:59:20.294Z,98426.48
2023-03-28T10:01:03.428Z,98433.98
2023-03-28T10:02:51.596Z,98438.42
2023-03-28T10:04:21.432Z,98437.44
2023-03-28T10:06:13.700Z,98447.46
2023-03-28T10:07:49.423Z,98449.35
2023-03-28T10:09:31.773Z,98453.78
2023-03-28T10:10:59.853Z,98455.45
2023-03-28T10:12:33.572Z,98454.07
2023-03-28T10:14:06.691Z,98456.63
2023-03-28T10:15:38.537Z,98456.77
2023-03-28T10:17:58.220Z,98455.91
2023-03-28T10:19:34.300Z,98456.19
2023-03-28T10:21:02.789Z,98447.61
2023-03-28T10:22:27.034Z,98459.73
2023-03-28T10:23:56.472Z,98460.00
2023-03-28T10:25:32.523Z,98465.36
2023-03-28T10:27:17.465Z,98462.69
2023-03-28T10:28:52.770Z,98470.44
2023-03-28T10:30:26.309Z,98471.79
2023-03-28T10:32:11.232Z,98467.66
2023-03-28T10:34:05.341Z,98478.60
2023-03-28T10:35:49.444Z,98470.00
2023-03-28T10:37:17.901Z,98477.71
2023-03-28T10:38:44.137Z,98482.73
2023-03-28T10:40:27.979Z,98483.86
2023-03-28T10:42:20.324Z,98478.09
2023-03-28T10:43:49.650Z,98477.42
2023-03-28T10:45:30.113Z,98483.91
2023-03-28T10:47:03.934Z,98483.88
2023-03-28T10:48:45.436Z,98487.08
2023-03-28T10:50:36.804Z,98495.96
2023-03-28T10:52:13.069Z,98489.60
2023-03-28T10:54:06.194Z,98501.14
2023-03-28T10:55:54.254Z,98499.02
2023-03-28T10:57:50.778Z,98511.14
2023-03-28T10:59:23.503Z,98511.63
2023-03-28T11:00:57.259Z,98506.48
2023-03-28T11:02:27.877Z,98502.44
2023-03-28T11:04:01.358Z,98493.38
2023-03-28T11:06:08.744Z,98496.95
2023-03-28T11:08:05.513Z,98502.54
2023-03-28T11:09:52.703Z,98500.70
2023-03-28T11:11:45.940Z,98505.11
2023-03-28T11:13:22.251Z,98512.89
2023-03-28T11:14:50.864Z,98508.19
2023-03-28T11:16:25.598Z,98515.38
2023-03-28T11:18:09.190Z,98512.74
2023-03-28T11:20:02.497Z,98517.80
2023-03-28T11:21:33.426Z,98519.63
2023-03-28T11:23:09.427Z,98519.89
2023-03-28T11:24:50.974Z,98526.89
2023-03-28T11:26:47.501Z,98527.81
2023-03-28T11:28:27.949Z,98534.67
2023-03-28T11:30:15.483Z,98538.81
2023-03-28T11:31:52.994Z,98537.30
2023-03-28T11:33:38.567Z,98528.70
2023-03-28T11:35:32.535Z,98536.38
2023-03-28T11:37:07.432Z,98539.33
2023-03-28T11:38:29.442Z,98543.86
2023-03-28T11:40:06.954Z,98539.41
2023-03-28T11:42:09.227Z,98534.49
2023-03-28T11:43:47.322Z,98522.48
2023-03-28T11:45:33.898Z,98531.17
2023-03-28T11:47:23.316Z,98530.55
2023-03-28T11:49:14.603Z,98533.34
2023-03-28T11:50:51.024Z,98531.06
2023-03-28T11:52:54.270Z,98537.04
2023-03-28T11:54:20.262Z,98540.48
2023-03-28T11:56:09.511Z,98544.89
2023-03-28T11:58:09.715Z,98543.46
2023-03-28T11:59:45.425Z,98549.02
2023-03-28T12:01:31.071Z,98547.34
2023-03-28T12:03:06.870Z,98550.11
2023-03-28T12:04:57.755Z,98553.16
2023-03-28T12:06:52.294Z,98556.22
2023-03-28T12:08:41.173Z,98558.13
2023-03-28T12:10:17.529Z,98555.89
2023-03-28T12:11:58.284Z,98561.44
2023-03-28T12:13:35.929Z,98567.83
2023-03-28T12:15:06.279Z,98564.58
2023-03-28T12:17:04.581Z,98568.87
2023-03-28T12:18:34.282Z,98543.70
2023-03-28T12:20:08.383Z,98572.91
2023-03-28T12:21:42.165Z,98562.82
2023-03-28T12:23:23.333Z,98565.60
2023-03-28T12:25:05.851Z,98570.93
2023-03-28T12:26:44.717Z,98573.24
2023-03-28T12:28:38.599Z,98565.39
2023-03-28T12:30:10.025Z,98571.98
2023-03-28T12:32:00.526Z,98557.87
2023-03-28T12:33:43.669Z,98573.04
2023-03-28T12:35:25.602Z,98577.48
2023-03-28T12:37:06.274Z,98579.02
2023-03-28T12:38:37.548Z,98581.86
2023-03-28T12:40:36.985Z,98579.52
2023-03-28T12:42:11.456Z,98587.95
2023-03-28T12:43:56.854Z,98592.34
2023-03-28T12:45:33.624Z,98598.17
2023-03-28T12:47:06.797Z,98601.67
2023-03-28T12:48:44.585Z,98612.25
2023-03-28T12:50:32.191Z,98609.61
2023-03-28T12:51:54.857Z,98621.59
2023-03-28T12:53:24.613Z,98617.27
2023-03-28T12:55:00.901Z,98624.36
2023-03-28T12:56:42.717Z,98615.81
2023-03-28T12:58:06.872Z,98605.95
2023-03-28T13:00:07.239Z,98617.20
2023-03-28T13:01:49.435Z,98611.92
2023-03-28T13:03:23.571Z,98617.81
2023-03-28T13:04:57.335Z,98613.98
2023-03-28T13:06:45.795Z,98622.21
2023-03-28T13:08:07.402Z,98621.05
2023-03-28T13:09:34.720Z,98617.63
2023-03-28T13:10:59.233Z,98610.69
2023-03-28T13:12:41.555Z,98618.75
2023-03-28T13:14:26.843Z,98621.83
2023-03-28T13:15:56.430Z,98615.98
2023-03-28T13:17:42.761Z,98612.23
2023-03-28T13:19:27.772Z,98614.07
2023-03-28T13:21:08.063Z,98620.41
2023-03-28T13:22:34.615Z,98616.52
2023-03-28T13:24:08.224Z,98625.19
2023-03-28T13:25:32.023Z,98626.79
2023-03-28T13:27:17.016Z,98633.52
2023-03-28T13:28:48.117Z,98638.02
2023-03-28T13:30:24.368Z,98643.10
2023-03-28T13:32:09.462Z,98656.59
2023-03-28T13:33:45.343Z,98659.65
2023-03-28T13:35:26.378Z,98670.55
2023-03-28T13:37:11.431Z,98678.35
2023-03-28T13:38:51.913Z,98670.27
2023-03-28T13:40:25.759Z,98668.54
2023-03-28T13:41:55.221Z,98657.84
2023-03-28T13:43:21.907Z,98657.29
2023-03-28T13:44:55.239Z,98660.58
2023-03-28T13:46:40.686Z,98659.29
2023-03-28T13:48:14.618Z,98659.54
2023-03-28T13:49:36.414Z,98660.41
2023-03-28T13:51:10.216Z,98662.32
2023-03-28T13:52:45.634Z,98664.67
2023-03-28T13:54:09.762Z,98663.84
2023-03-28T13:55:50.237Z,98664.52
2023-03-28T13:57:21.152Z,98667.29
2023-03-28T13:58:44.933Z,98655.89
2023-03-28T14:00:19.415Z,98672.08
2023-03-28T14:02:01.537Z,98670.94
2023-03-28T14:03:23.633Z,98677.15
2023-03-28T14:05:04.136Z,98683.53
2023-03-28T14:06:37.489Z,98683.16
2023-03-28T14:08:10.908Z,98684.64
2023-03-28T14:09:56.006Z,98685.86
2023-03-28T14:11:31.600Z,98682.32
2023-03-28T14:12:57.746Z,98686.77
2023-03-28T14:14:30.892Z,98691.02
2023-03-28T14:16:11.234Z,98685.35
2023-03-28T14:17:56.806Z,98678.34
2023-03-28T14:19:50.314Z,98691.02
2023-03-28T14:21:31.202Z,98703.27
2023-03-28T14:23:15.666Z,98709.33
2023-03-28T14:24:55.404Z,98707.69
2023-03-28T14:26:24.600Z,98699.91
2023-03-28T14:28:05.533Z,98702.17
2023-03-28T14:29:50.260Z,98707.06
2023-03-28T14:31:31.072Z,98699.64
2023-03-28T14:33:06.999Z,98701.08
2023-03-28T14:34:33.538Z,98697.60
2023-03-28T14:36:06.587Z,98695.59
2023-03-28T14:37:51.498Z,98695.38
2023-03-28T14:39:25.493Z,98699.16
2023-03-28T14:41:01.312Z,98701.23
2023-03-28T14:42:24.341Z,98695.44
2023-03-28T14:44:09.518Z,98699.25
2023-03-28T14:45:50.346Z,98696.30
2023-03-28T14:47:14.325Z,98707.64
2023-03-28T14:49:07.734Z,98706.13
2023-03-28T14:50:32.606Z,98709.14
2023-03-28T14:52:15.280Z,98713.63
2023-03-28T14:53:57.393Z,98717.30
2023-03-28T14:55:43.021Z,98717.35
2023-03-28T14:57:05.052Z,98734.38
2023-03-28T14:58:34.821Z,98739.27
2023-03-28T15:00:12.257Z,98749.70
2023-03-28T15:01:58.633Z,98755.90
2023-03-28T15:03:34.254Z,98756.77
2023-03-28T15:05:05.974Z,98741.17
2023-03-28T15:06:52.726Z,98733.55
2023-03-28T15:08:40.098Z,98738.70
2023-03-28T15:10:03.953Z,98742.03
2023-03-28T15:11:46.160Z,98740.09
2023-03-28T15:13:31.488Z,98738.16
2023-03-28T15:15:16.370Z,98740.96
2023-03-28T15:16:53.232Z,98738.27
2023-03-28T15:18:38.563Z,98738.85
2023-03-28T15:20:07.366Z,98740.84
2023-03-28T15:21:41.242Z,98744.16
2023-03-28T15:23:26.473Z,98745.53
2023-03-28T15:24:52.852Z,98747.22
2023-03-28T15:26:38.261Z,98754.98
2023-03-28T15:28:18.835Z,98752.27
2023-03-28T15:30:11.937Z,98759.75
2023-03-28T15:31:52.888Z,98764.45
2023-03-28T15:33:29.256Z,98772.97
2023-03-28T15:35:04.667Z,98776.17
2023-03-28T15:36:49.840Z,98762.98
2023-03-28T15:38:23.238Z,98785.45
2023-03-28T15:39:52.352Z,98786.13
2023-03-28T15:41:37.455Z,98789.64
2023-03-28T15:43:18.140Z,98775.77
2023-03-28T15:44:43.224Z,98777.73
2023-03-28T15:46:28.454Z,98776.05
2023-03-28T15:48:13.615Z,98784.25
2023-03-28T15:49:53.175Z,98785.59
2023-03-28T15:51:26.802Z,98779.85
2023-03-28T15:53:02.313Z,98783.70
2023-03-28T15:54:55.788Z,98778.86
2023-03-28T15:56:50.591Z,98778.01
2023-03-28T15:58:19.877Z,98783.55
2023-03-28T16:00:00.141Z,98785.21
2023-03-28T16:01:44.517Z,98786.97
2023-03-28T16:03:20.764Z,98790.50
2023-03-28T16:04:45.257Z,98791.09
2023-03-28T16:06:30.908Z,98792.52
2023-03-28T16:08:09.273Z,98798.17
2023-03-28T16:10:02.929Z,98805.27
2023-03-28T16:11:46.220Z,98810.02
2023-03-28T16:14:15.862Z,98813.02
2023-03-28T16:16:11.457Z,98816.84
2023-03-28T16:18:07.455Z,98819.11
2023-03-28T16:19:50.095Z,98808.51
2023-03-28T16:21:24.664Z,98820.16
2023-03-28T16:22:57.954Z,98823.70
2023-03-28T16:24:46.840Z,98820.52
2023-03-28T16:26:08.553Z,98824.39
2023-03-28T16:27:49.107Z,98827.83
2023-03-28T16:29:22.356Z,98834.63
2023-03-28T16:30:44.171Z,98835.21
2023-03-28T16:32:25.098Z,98822.77
2023-03-28T16:33:47.302Z,98833.73
2023-03-28T16:35:28.808Z,98836.75
2023-03-28T16:37:10.509Z,98843.80
2023-03-28T16:38:59.769Z,98844.42
2023-03-28T16:40:33.710Z,98845.63
2023-03-28T16:41:55.585Z,98847.79
2023-03-28T16:43:25.227Z,98843.95
2023-03-28T16:45:01.153Z,98846.71
2023-03-28T16:46:44.472Z,98851.92
2023-03-28T16:48:07.088Z,98848.25
2023-03-28T16:49:29.304Z,98856.11
2023-03-28T16:51:05.130Z,98858.37
2023-03-28T16:52:39.927Z,98862.83
2023-03-28T16:54:24.745Z,98863.41
2023-03-28T16:55:52.246Z,98864.73
2023-03-28T16:57:26.523Z,98866.19
2023-03-28T16:58:48.283Z,98868.42
2023-03-28T17:00:21.785Z,98864.08
2023-03-28T17:02:10.122Z,98865.09
2023-03-28T17:04:03.927Z,98869.89
2023-03-28T17:05:33.106Z,98864.55
2023-03-28T17:07:08.588Z,98870.34
2023-03-28T17:08:59.493Z,98872.31
2023-03-28T17:10:44.561Z,98871.48
2023-03-28T17:12:29.460Z,98872.25
2023-03-28T17:14:14.788Z,98877.27
2023-03-28T17:16:00.610Z,98875.48
2023-03-28T17:17:36.720Z,98878.31
2023-03-28T17:19:10.415Z,98878.33
2023-03-28T17:20:57.969Z,98878.95
2023-03-28T17:22:45.381Z,98878.92
2023-03-28T17:24:30.719Z,98881.56
2023-03-28T17:26:11.324Z,98886.95
2023-03-28T17:27:44.927Z,98883.61
2023-03-28T17:29:20.797Z,98887.39
2023-03-28T17:31:02.677Z,98892.45
2023-03-28T17:32:29.199Z,98890.45
2023-03-28T17:34:05.290Z,98892.11
2023-03-28T17:35:50.476Z,98893.24
2023-03-28T17:37:26.370Z,98897.95
2023-03-28T17:39:10.728Z,98892.93
2023-03-28T17:40:35.463Z,98895.58
2023-03-28T17:42:17.217Z,98893.85
2023-03-28T17:43:49.261Z,98897.27
2023-03-28T17:45:30.862Z,98896.79
2023-03-28T17:47:16.110Z,98900.34
2023-03-28T17:48:53.137Z,98898.38
2023-03-28T17:50:27.245Z,98895.33
2023-03-28T17:52:02.018Z,98900.92
2023-03-28T17:53:35.365Z,98902.13
2023-03-28T17:55:00.174Z,98901.98
2023-03-28T17:56:35.005Z,98907.11
2023-03-28T17:58:10.585Z,98909.45
2023-03-28T17:59:46.561Z,98910.18
2023-03-28T18:01:13.481Z,98912.42
2023-03-28T18:02:48.319Z,98915.67
2023-03-28T18:04:32.845Z,98913.55
2023-03-28T18:06:15.581Z,98916.77
2023-03-28T18:08:00.273Z,98922.11
2023-03-28T18:09:33.929Z,98921.13
2023-03-28T18:11:07.900Z,98926.52
2023-03-28T18:12:49.164Z,98909.27
2023-03-28T18:14:34.496Z,98926.90
2023-03-28T18:15:58.939Z,98932.19
2023-03-28T18:17:42.529Z,98931.83
2023-03-28T18:19:18.749Z,98932.60
2023-03-28T18:20:59.614Z,98935.84
2023-03-28T18:22:53.427Z,98933.11
2023-03-28T18:24:26.938Z,98935.30
2023-03-28T18:26:00.181Z,98934.86
2023-03-28T18:27:37.656Z,98935.53
2023-03-28T18:29:11.420Z,98942.45
2023-03-28T18:30:47.193Z,98940.59
2023-03-28T18:32:09.381Z,98939.98
2023-03-28T18:33:55.196Z,98940.89
2023-03-28T18:35:26.980Z,98938.20
2023-03-28T18:37:01.195Z,98939.70
2023-03-28T18:38:23.233Z,98940.99
2023-03-28T18:39:45.446Z,98937.52
2023-03-28T18:41:21.664Z,98939.20
2023-03-28T18:42:57.800Z,98940.75
2023-03-28T18:44:27.283Z,98946.36
2023-03-28T18:46:01.126Z,98945.52
2023-03-28T18:47:31.100Z,98944.96
2023-03-28T18:49:07.247Z,98949.52
2023-03-28T18:50:30.114Z,98948.99
2023-03-28T18:52:09.022Z,98932.75
2023-03-28T18:53:31.363Z,98952.80
2023-03-28T18:55:16.340Z,98951.16
2023-03-28T18:56:57.495Z,98955.88
2023-03-28T18:58:33.591Z,98956.92
2023-03-28T19:00:18.509Z,98955.29
2023-03-28T19:01:52.197Z,98955.15
2023-03-28T19:03:46.366Z,98960.00
2023-03-28T19:05:39.467Z,98957.80
2023-03-28T19:07:16.125Z,98962.88
2023-03-28T19:08:39.757Z,98962.58
2023-03-28T19:10:15.521Z,98960.99
2023-03-28T19:11:56.342Z,98962.95
2023-03-28T19:13:20.712Z,98960.10
2023-03-28T19:14:49.600Z,98965.80
2023-03-28T19:16:23.250Z,98964.55
2023-03-28T19:18:08.520Z,98966.90
2023-03-28T19:19:44.962Z,98964.12
2023-03-28T19:21:18.284Z,98954.75
2023-03-28T19:22:44.619Z,98969.58
2023-03-28T19:24:21.244Z,98966.17
2023-03-28T19:26:04.474Z,98969.20
2023-03-28T19:27:52.635Z,98972.52
2023-03-28T19:29:38.786Z,98969.67
2023-03-28T19:31:23.790Z,98965.71
2023-03-28T19:33:17.557Z,98968.14
2023-03-28T19:35:00.467Z,98960.29
2023-03-28T19:36:55.482Z,98973.42
2023-03-28T19:38:30.923Z,98973.27
2023-03-28T19:40:18.982Z,98976.52
2023-03-28T19:42:14.469Z,98977.59
2023-03-28T19:43:47.867Z,98984.08
2023-03-28T19:45:40.775Z,98989.14
2023-03-28T19:47:31.512Z,98989.23
2023-03-28T19:49:17.217Z,98991.73